sensor_id;sensor_type;location;lat;lon;timestamp;P1;durP1;ratioP1;P2;durP2;ratioP2
72895;SDS011;61036;53.224;6.554;2023-05-02T00:01:08;8.77;;;4.90;;
72895;SDS011;61036;53.224;6.554;2023-05-02T00:03:33;9.97;;;5.30;;
72895;SDS011;61036;53.224;6.554;2023-05-02T00:05:59;9.13;;;4.77;;
72895;SDS011;61036;53.224;6.554;2023-05-02T00:08:25;11.60;;;4.80;;
72895;SDS011;61036;53.224;6.554;2023-05-02T00:10:50;10.43;;;4.90;;
72895;SDS011;61036;53.224;6.554;2023-05-02T00:13:16;11.33;;;4.40;;
72895;SDS011;61036;53.224;6.554;2023-05-02T00:15:42;10.87;;;4.47;;
72895;SDS011;61036;53.224;6.554;2023-05-02T00:18:07;9.47;;;3.77;;
72895;SDS011;61036;53.224;6.554;2023-05-02T00:20:33;7.73;;;4.03;;
72895;SDS011;61036;53.224;6.554;2023-05-02T00:22:58;9.13;;;4.20;;
72895;SDS011;61036;53.224;6.554;2023-05-02T00:25:24;6.93;;;3.50;;
72895;SDS011;61036;53.224;6.554;2023-05-02T00:27:49;10.47;;;3.83;;
72895;SDS011;61036;53.224;6.554;2023-05-02T00:30:16;9.13;;;4.20;;
72895;SDS011;61036;53.224;6.554;2023-05-02T00:32:43;6.33;;;3.73;;
72895;SDS011;61036;53.224;6.554;2023-05-02T00:35:09;9.47;;;4.13;;
72895;SDS011;61036;53.224;6.554;2023-05-02T00:37:34;8.60;;;4.13;;
72895;SDS011;61036;53.224;6.554;2023-05-02T00:40:00;9.37;;;3.50;;
72895;SDS011;61036;53.224;6.554;2023-05-02T00:42:26;6.97;;;3.67;;
72895;SDS011;61036;53.224;6.554;2023-05-02T00:44:55;7.63;;;3.43;;
72895;SDS011;61036;53.224;6.554;2023-05-02T00:47:21;10.53;;;4.17;;
72895;SDS011;61036;53.224;6.554;2023-05-02T00:49:48;10.50;;;4.03;;
72895;SDS011;61036;53.224;6.554;2023-05-02T00:52:14;9.20;;;4.43;;
72895;SDS011;61036;53.224;6.554;2023-05-02T00:54:40;9.53;;;4.00;;
72895;SDS011;61036;53.224;6.554;2023-05-02T00:57:06;10.63;;;3.97;;
72895;SDS011;61036;53.224;6.554;2023-05-02T00:59:33;7.30;;;3.67;;
72895;SDS011;61036;53.224;6.554;2023-05-02T01:12:59;9.83;;;4.10;;
72895;SDS011;61036;53.224;6.554;2023-05-02T01:15:32;9.47;;;4.40;;
72895;SDS011;61036;53.224;6.554;2023-05-02T01:18:01;8.47;;;3.90;;
72895;SDS011;61036;53.224;6.554;2023-05-02T01:20:28;12.60;;;4.60;;
72895;SDS011;61036;53.224;6.554;2023-05-02T01:22:58;11.63;;;3.80;;
72895;SDS011;61036;53.224;6.554;2023-05-02T01:26:12;12.23;;;4.53;;
72895;SDS011;61036;53.224;6.554;2023-05-02T01:28:34;27.23;;;9.57;;
72895;SDS011;61036;53.224;6.554;2023-05-02T01:31:20;43.60;;;33.47;;
72895;SDS011;61036;53.224;6.554;2023-05-02T01:33:47;13.33;;;5.77;;
72895;SDS011;61036;53.224;6.554;2023-05-02T01:36:14;13.33;;;4.77;;
72895;SDS011;61036;53.224;6.554;2023-05-02T01:38:41;17.30;;;4.97;;
72895;SDS011;61036;53.224;6.554;2023-05-02T01:41:08;16.13;;;5.13;;
72895;SDS011;61036;53.224;6.554;2023-05-02T01:43:35;14.13;;;4.60;;
72895;SDS011;61036;53.224;6.554;2023-05-02T01:46:02;17.73;;;5.23;;
72895;SDS011;61036;53.224;6.554;2023-05-02T01:48:30;13.20;;;4.40;;
72895;SDS011;61036;53.224;6.554;2023-05-02T01:50:56;13.40;;;4.60;;
72895;SDS011;61036;53.224;6.554;2023-05-02T01:53:24;13.97;;;4.30;;
72895;SDS011;61036;53.224;6.554;2023-05-02T01:55:52;12.40;;;4.80;;
72895;SDS011;61036;53.224;6.554;2023-05-02T01:58:19;18.67;;;4.77;;
72895;SDS011;61036;53.224;6.554;2023-05-02T02:00:46;14.80;;;4.83;;
72895;SDS011;61036;53.224;6.554;2023-05-02T02:03:12;11.30;;;3.83;;
72895;SDS011;61036;53.224;6.554;2023-05-02T02:05:41;15.82;;;4.43;;
72895;SDS011;61036;53.224;6.554;2023-05-02T02:08:06;14.37;;;4.37;;
72895;SDS011;61036;53.224;6.554;2023-05-02T02:10:39;14.17;;;4.23;;
72895;SDS011;61036;53.224;6.554;2023-05-02T02:13:26;14.93;;;5.27;;
72895;SDS011;61036;53.224;6.554;2023-05-02T02:15:58;17.33;;;4.80;;
72895;SDS011;61036;53.224;6.554;2023-05-02T02:18:26;18.70;;;4.57;;
72895;SDS011;61036;53.224;6.554;2023-05-02T02:20:54;16.57;;;5.07;;
72895;SDS011;61036;53.224;6.554;2023-05-02T02:23:20;567.47;;;518.45;;
72895;SDS011;61036;53.224;6.554;2023-05-02T02:25:49;543.25;;;495.25;;
72895;SDS011;61036;53.224;6.554;2023-05-02T02:28:17;565.78;;;516.13;;
72895;SDS011;61036;53.224;6.554;2023-05-02T02:30:43;23.40;;;5.67;;
72895;SDS011;61036;53.224;6.554;2023-05-02T02:33:08;18.60;;;4.80;;
72895;SDS011;61036;53.224;6.554;2023-05-02T02:35:36;19.77;;;4.47;;
72895;SDS011;61036;53.224;6.554;2023-05-02T02:41:18;18.77;;;4.80;;
72895;SDS011;61036;53.224;6.554;2023-05-02T02:44:20;17.03;;;5.17;;
72895;SDS011;61036;53.224;6.554;2023-05-02T02:46:59;15.13;;;4.93;;
72895;SDS011;61036;53.224;6.554;2023-05-02T02:49:48;19.67;;;5.03;;
72895;SDS011;61036;53.224;6.554;2023-05-02T02:52:23;16.92;;;4.80;;
72895;SDS011;61036;53.224;6.554;2023-05-02T03:00:55;14.43;;;3.93;;
72895;SDS011;61036;53.224;6.554;2023-05-02T03:03:21;12.93;;;4.20;;
72895;SDS011;61036;53.224;6.554;2023-05-02T03:05:53;14.10;;;3.33;;
72895;SDS011;61036;53.224;6.554;2023-05-02T03:08:21;13.13;;;3.60;;
72895;SDS011;61036;53.224;6.554;2023-05-02T03:10:47;14.20;;;4.27;;
72895;SDS011;61036;53.224;6.554;2023-05-02T03:13:12;10.67;;;3.00;;
72895;SDS011;61036;53.224;6.554;2023-05-02T03:18:23;130.87;;;122.57;;
72895;SDS011;61036;53.224;6.554;2023-05-02T03:20:49;12.07;;;2.97;;
72895;SDS011;61036;53.224;6.554;2023-05-02T03:23:14;10.20;;;3.17;;
72895;SDS011;61036;53.224;6.554;2023-05-02T03:25:40;12.37;;;3.13;;
72895;SDS011;61036;53.224;6.554;2023-05-02T03:28:09;10.73;;;3.37;;
72895;SDS011;61036;53.224;6.554;2023-05-02T03:30:35;17.50;;;3.20;;
72895;SDS011;61036;53.224;6.554;2023-05-02T03:33:05;10.27;;;2.80;;
72895;SDS011;61036;53.224;6.554;2023-05-02T03:35:33;10.70;;;2.90;;
72895;SDS011;61036;53.224;6.554;2023-05-02T03:37:58;13.23;;;2.83;;
72895;SDS011;61036;53.224;6.554;2023-05-02T03:40:24;9.53;;;2.47;;
72895;SDS011;61036;53.224;6.554;2023-05-02T03:42:53;10.20;;;2.90;;
72895;SDS011;61036;53.224;6.554;2023-05-02T03:45:27;11.40;;;3.30;;
72895;SDS011;61036;53.224;6.554;2023-05-02T03:47:53;11.90;;;2.73;;
72895;SDS011;61036;53.224;6.554;2023-05-02T03:50:19;12.53;;;2.63;;
72895;SDS011;61036;53.224;6.554;2023-05-02T03:52:47;8.73;;;2.20;;
72895;SDS011;61036;53.224;6.554;2023-05-02T03:55:13;11.97;;;2.87;;
72895;SDS011;61036;53.224;6.554;2023-05-02T03:57:40;11.53;;;2.30;;
72895;SDS011;61036;53.224;6.554;2023-05-02T04:00:07;7.93;;;2.20;;
72895;SDS011;61036;53.224;6.554;2023-05-02T04:02:46;14.50;;;2.70;;
72895;SDS011;61036;53.224;6.554;2023-05-02T04:05:15;6.70;;;2.00;;
72895;SDS011;61036;53.224;6.554;2023-05-02T04:07:41;7.03;;;2.20;;
72895;SDS011;61036;53.224;6.554;2023-05-02T04:10:07;10.10;;;2.40;;
72895;SDS011;61036;53.224;6.554;2023-05-02T04:12:41;10.30;;;2.20;;
72895;SDS011;61036;53.224;6.554;2023-05-02T04:15:11;8.10;;;2.60;;
72895;SDS011;61036;53.224;6.554;2023-05-02T04:17:38;6.27;;;2.50;;
72895;SDS011;61036;53.224;6.554;2023-05-02T04:20:05;7.63;;;2.47;;
72895;SDS011;61036;53.224;6.554;2023-05-02T04:22:33;5.33;;;2.30;;
72895;SDS011;61036;53.224;6.554;2023-05-02T04:25:02;6.87;;;2.43;;
72895;SDS011;61036;53.224;6.554;2023-05-02T04:27:30;247.37;;;220.07;;
72895;SDS011;61036;53.224;6.554;2023-05-02T04:29:56;7.77;;;2.60;;
72895;SDS011;61036;53.224;6.554;2023-05-02T04:32:22;9.37;;;2.47;;
72895;SDS011;61036;53.224;6.554;2023-05-02T04:34:48;12.38;;;2.50;;
72895;SDS011;61036;53.224;6.554;2023-05-02T04:37:15;5.53;;;1.80;;
72895;SDS011;61036;53.224;6.554;2023-05-02T04:39:43;8.87;;;2.17;;
72895;SDS011;61036;53.224;6.554;2023-05-02T04:42:14;10.13;;;4.83;;
72895;SDS011;61036;53.224;6.554;2023-05-02T04:44:48;18.67;;;5.00;;
72895;SDS011;61036;53.224;6.554;2023-05-02T04:47:14;11.57;;;3.80;;
72895;SDS011;61036;53.224;6.554;2023-05-02T04:49:40;10.10;;;2.63;;
72895;SDS011;61036;53.224;6.554;2023-05-02T04:52:07;16.23;;;4.33;;
72895;SDS011;61036;53.224;6.554;2023-05-02T04:54:34;51.17;;;27.30;;
72895;SDS011;61036;53.224;6.554;2023-05-02T04:56:59;10.27;;;2.93;;
72895;SDS011;61036;53.224;6.554;2023-05-02T04:59:28;10.20;;;3.20;;
72895;SDS011;61036;53.224;6.554;2023-05-02T05:01:55;9.30;;;2.63;;
72895;SDS011;61036;53.224;6.554;2023-05-02T05:04:21;10.43;;;3.00;;
72895;SDS011;61036;53.224;6.554;2023-05-02T05:06:47;8.80;;;3.10;;
72895;SDS011;61036;53.224;6.554;2023-05-02T05:09:14;11.03;;;2.63;;
72895;SDS011;61036;53.224;6.554;2023-05-02T05:11:40;10.57;;;2.80;;
72895;SDS011;61036;53.224;6.554;2023-05-02T05:14:07;8.60;;;2.77;;
72895;SDS011;61036;53.224;6.554;2023-05-02T05:16:36;13.13;;;2.80;;
72895;SDS011;61036;53.224;6.554;2023-05-02T05:19:02;13.37;;;3.23;;
72895;SDS011;61036;53.224;6.554;2023-05-02T05:21:28;15.90;;;6.00;;
72895;SDS011;61036;53.224;6.554;2023-05-02T05:23:55;10.03;;;3.10;;
72895;SDS011;61036;53.224;6.554;2023-05-02T05:26:24;11.17;;;2.87;;
72895;SDS011;61036;53.224;6.554;2023-05-02T05:28:51;11.63;;;2.90;;
72895;SDS011;61036;53.224;6.554;2023-05-02T05:31:18;11.37;;;3.13;;
72895;SDS011;61036;53.224;6.554;2023-05-02T05:33:50;12.18;;;3.42;;
72895;SDS011;61036;53.224;6.554;2023-05-02T05:36:16;12.73;;;3.70;;
72895;SDS011;61036;53.224;6.554;2023-05-02T05:38:42;9.83;;;3.60;;
72895;SDS011;61036;53.224;6.554;2023-05-02T05:41:09;9.80;;;3.33;;
72895;SDS011;61036;53.224;6.554;2023-05-02T05:43:38;14.60;;;3.10;;
72895;SDS011;61036;53.224;6.554;2023-05-02T05:46:03;8.80;;;3.00;;
72895;SDS011;61036;53.224;6.554;2023-05-02T05:48:31;10.70;;;3.20;;
72895;SDS011;61036;53.224;6.554;2023-05-02T05:51:02;10.90;;;3.63;;
72895;SDS011;61036;53.224;6.554;2023-05-02T05:53:29;379.97;;;322.80;;
72895;SDS011;61036;53.224;6.554;2023-05-02T05:55:55;10.37;;;3.73;;
72895;SDS011;61036;53.224;6.554;2023-05-02T05:58:22;8.83;;;4.03;;
72895;SDS011;61036;53.224;6.554;2023-05-02T06:00:49;9.50;;;2.93;;
72895;SDS011;61036;53.224;6.554;2023-05-02T06:03:15;18.57;;;6.20;;
72895;SDS011;61036;53.224;6.554;2023-05-02T06:05:41;12.03;;;4.50;;
72895;SDS011;61036;53.224;6.554;2023-05-02T06:08:07;23.70;;;7.33;;
72895;SDS011;61036;53.224;6.554;2023-05-02T06:10:33;346.47;;;223.13;;
72895;SDS011;61036;53.224;6.554;2023-05-02T06:12:59;244.83;;;204.33;;
72895;SDS011;61036;53.224;6.554;2023-05-02T06:15:31;17.87;;;10.10;;
72895;SDS011;61036;53.224;6.554;2023-05-02T06:17:58;11.30;;;3.20;;
72895;SDS011;61036;53.224;6.554;2023-05-02T06:20:23;9.37;;;2.93;;
72895;SDS011;61036;53.224;6.554;2023-05-02T06:22:48;9.40;;;3.10;;
72895;SDS011;61036;53.224;6.554;2023-05-02T06:25:14;8.40;;;2.67;;
72895;SDS011;61036;53.224;6.554;2023-05-02T06:27:39;9.03;;;3.00;;
72895;SDS011;61036;53.224;6.554;2023-05-02T06:30:05;10.73;;;2.93;;
72895;SDS011;61036;53.224;6.554;2023-05-02T06:32:31;12.83;;;5.93;;
72895;SDS011;61036;53.224;6.554;2023-05-02T06:34:57;9.73;;;2.50;;
72895;SDS011;61036;53.224;6.554;2023-05-02T06:37:22;10.97;;;3.10;;
72895;SDS011;61036;53.224;6.554;2023-05-02T06:39:48;9.73;;;3.40;;
72895;SDS011;61036;53.224;6.554;2023-05-02T06:42:13;9.60;;;3.50;;
72895;SDS011;61036;53.224;6.554;2023-05-02T06:44:39;10.57;;;2.83;;
72895;SDS011;61036;53.224;6.554;2023-05-02T06:47:04;8.43;;;3.10;;
72895;SDS011;61036;53.224;6.554;2023-05-02T06:49:33;10.50;;;2.90;;
72895;SDS011;61036;53.224;6.554;2023-05-02T06:51:58;8.07;;;3.03;;
72895;SDS011;61036;53.224;6.554;2023-05-02T06:54:24;13.77;;;3.03;;
72895;SDS011;61036;53.224;6.554;2023-05-02T06:56:50;7.97;;;2.70;;
72895;SDS011;61036;53.224;6.554;2023-05-02T06:59:16;11.40;;;4.03;;
72895;SDS011;61036;53.224;6.554;2023-05-02T07:01:44;11.90;;;3.10;;
72895;SDS011;61036;53.224;6.554;2023-05-02T07:04:10;8.73;;;3.13;;
72895;SDS011;61036;53.224;6.554;2023-05-02T07:06:35;9.47;;;3.00;;
72895;SDS011;61036;53.224;6.554;2023-05-02T07:09:01;9.97;;;3.13;;
72895;SDS011;61036;53.224;6.554;2023-05-02T07:11:26;6.77;;;2.80;;
72895;SDS011;61036;53.224;6.554;2023-05-02T07:13:52;8.83;;;2.90;;
72895;SDS011;61036;53.224;6.554;2023-05-02T07:16:18;10.23;;;2.83;;
72895;SDS011;61036;53.224;6.554;2023-05-02T07:18:44;74.70;;;35.17;;
72895;SDS011;61036;53.224;6.554;2023-05-02T07:21:12;10.13;;;3.37;;
72895;SDS011;61036;53.224;6.554;2023-05-02T07:23:38;8.50;;;3.07;;
72895;SDS011;61036;53.224;6.554;2023-05-02T07:26:04;8.20;;;3.07;;
72895;SDS011;61036;53.224;6.554;2023-05-02T07:28:29;8.63;;;2.87;;
72895;SDS011;61036;53.224;6.554;2023-05-02T07:30:55;10.40;;;2.97;;
72895;SDS011;61036;53.224;6.554;2023-05-02T07:33:21;9.77;;;2.90;;
72895;SDS011;61036;53.224;6.554;2023-05-02T07:35:47;7.17;;;2.80;;
72895;SDS011;61036;53.224;6.554;2023-05-02T07:38:13;9.83;;;3.00;;
72895;SDS011;61036;53.224;6.554;2023-05-02T07:40:39;10.57;;;2.80;;
72895;SDS011;61036;53.224;6.554;2023-05-02T07:43:05;5.13;;;2.40;;
72895;SDS011;61036;53.224;6.554;2023-05-02T07:45:30;7.60;;;2.33;;
72895;SDS011;61036;53.224;6.554;2023-05-02T07:47:56;6.33;;;2.50;;
72895;SDS011;61036;53.224;6.554;2023-05-02T07:50:21;6.57;;;2.30;;
72895;SDS011;61036;53.224;6.554;2023-05-02T07:52:48;8.43;;;2.50;;
72895;SDS011;61036;53.224;6.554;2023-05-02T07:55:13;7.80;;;2.30;;
72895;SDS011;61036;53.224;6.554;2023-05-02T07:57:39;6.07;;;2.03;;
72895;SDS011;61036;53.224;6.554;2023-05-02T08:00:05;9.67;;;2.37;;
72895;SDS011;61036;53.224;6.554;2023-05-02T08:02:38;7.37;;;2.00;;
72895;SDS011;61036;53.224;6.554;2023-05-02T08:05:03;137.90;;;96.83;;
72895;SDS011;61036;53.224;6.554;2023-05-02T08:07:30;25.10;;;6.93;;
72895;SDS011;61036;53.224;6.554;2023-05-02T08:09:56;137.73;;;96.67;;
72895;SDS011;61036;53.224;6.554;2023-05-02T08:12:21;104.10;;;72.97;;
72895;SDS011;61036;53.224;6.554;2023-05-02T08:14:47;499.40;;;352.13;;
72895;SDS011;61036;53.224;6.554;2023-05-02T08:17:12;187.77;;;175.93;;
72895;SDS011;61036;53.224;6.554;2023-05-02T08:19:38;430.23;;;389.97;;
72895;SDS011;61036;53.224;6.554;2023-05-02T08:22:03;103.20;;;93.10;;
72895;SDS011;61036;53.224;6.554;2023-05-02T08:24:29;249.50;;;222.80;;
72895;SDS011;61036;53.224;6.554;2023-05-02T08:26:55;285.83;;;255.13;;
72895;SDS011;61036;53.224;6.554;2023-05-02T08:29:21;436.83;;;400.30;;
72895;SDS011;61036;53.224;6.554;2023-05-02T08:31:47;516.10;;;464.73;;
72895;SDS011;61036;53.224;6.554;2023-05-02T08:34:13;637.20;;;581.37;;
72895;SDS011;61036;53.224;6.554;2023-05-02T08:36:38;651.13;;;587.63;;
72895;SDS011;61036;53.224;6.554;2023-05-02T08:39:04;650.53;;;597.73;;
72895;SDS011;61036;53.224;6.554;2023-05-02T08:41:32;212.80;;;174.53;;
72895;SDS011;61036;53.224;6.554;2023-05-02T08:43:57;10.40;;;3.73;;
72895;SDS011;61036;53.224;6.554;2023-05-02T08:46:23;7.80;;;2.07;;
72895;SDS011;61036;53.224;6.554;2023-05-02T08:48:50;4.67;;;1.40;;
72895;SDS011;61036;53.224;6.554;2023-05-02T08:51:17;7.00;;;1.93;;
72895;SDS011;61036;53.224;6.554;2023-05-02T08:53:43;4.17;;;1.80;;
72895;SDS011;61036;53.224;6.554;2023-05-02T08:56:10;6.47;;;1.57;;
72895;SDS011;61036;53.224;6.554;2023-05-02T08:58:39;18.73;;;8.47;;
72895;SDS011;61036;53.224;6.554;2023-05-02T09:01:09;4.47;;;1.50;;
72895;SDS011;61036;53.224;6.554;2023-05-02T09:03:39;3.87;;;1.40;;
72895;SDS011;61036;53.224;6.554;2023-05-02T09:06:11;8.07;;;1.90;;
72895;SDS011;61036;53.224;6.554;2023-05-02T09:08:42;7.07;;;1.67;;
72895;SDS011;61036;53.224;6.554;2023-05-02T09:11:09;4.87;;;1.90;;
72895;SDS011;61036;53.224;6.554;2023-05-02T09:13:39;6.67;;;1.70;;
72895;SDS011;61036;53.224;6.554;2023-05-02T09:16:12;9.20;;;3.53;;
72895;SDS011;61036;53.224;6.554;2023-05-02T09:18:45;10.63;;;3.10;;
72895;SDS011;61036;53.224;6.554;2023-05-02T09:21:16;5.63;;;1.63;;
72895;SDS011;61036;53.224;6.554;2023-05-02T09:23:47;5.13;;;1.70;;
72895;SDS011;61036;53.224;6.554;2023-05-02T09:26:20;7.57;;;1.70;;
72895;SDS011;61036;53.224;6.554;2023-05-02T09:28:55;7.50;;;1.70;;
72895;SDS011;61036;53.224;6.554;2023-05-02T09:31:22;5.87;;;1.57;;
72895;SDS011;61036;53.224;6.554;2023-05-02T09:33:51;5.97;;;1.40;;
72895;SDS011;61036;53.224;6.554;2023-05-02T09:36:18;5.03;;;1.37;;
72895;SDS011;61036;53.224;6.554;2023-05-02T09:38:45;8.43;;;1.90;;
72895;SDS011;61036;53.224;6.554;2023-05-02T09:41:15;3.70;;;1.23;;
72895;SDS011;61036;53.224;6.554;2023-05-02T09:43:53;83.43;;;65.23;;
72895;SDS011;61036;53.224;6.554;2023-05-02T09:46:23;4.43;;;1.50;;
72895;SDS011;61036;53.224;6.554;2023-05-02T09:48:52;6.27;;;1.80;;
72895;SDS011;61036;53.224;6.554;2023-05-02T09:51:20;4.17;;;1.50;;
72895;SDS011;61036;53.224;6.554;2023-05-02T09:53:46;5.63;;;1.27;;
72895;SDS011;61036;53.224;6.554;2023-05-02T09:56:12;3.03;;;1.20;;
72895;SDS011;61036;53.224;6.554;2023-05-02T09:58:37;4.67;;;1.50;;
72895;SDS011;61036;53.224;6.554;2023-05-02T10:01:03;129.63;;;117.73;;
72895;SDS011;61036;53.224;6.554;2023-05-02T10:03:29;6.20;;;1.37;;
72895;SDS011;61036;53.224;6.554;2023-05-02T10:05:56;12.67;;;4.33;;
72895;SDS011;61036;53.224;6.554;2023-05-02T10:08:24;4.40;;;1.50;;
72895;SDS011;61036;53.224;6.554;2023-05-02T10:11:01;47.33;;;13.83;;
72895;SDS011;61036;53.224;6.554;2023-05-02T10:13:29;144.77;;;99.10;;
72895;SDS011;61036;53.224;6.554;2023-05-02T10:16:02;6.73;;;1.93;;
72895;SDS011;61036;53.224;6.554;2023-05-02T10:20:58;138.70;;;91.40;;
72895;SDS011;61036;53.224;6.554;2023-05-02T10:23:28;317.30;;;294.07;;
72895;SDS011;61036;53.224;6.554;2023-05-02T10:25:55;4.77;;;1.50;;
72895;SDS011;61036;53.224;6.554;2023-05-02T10:28:22;4.70;;;1.47;;
72895;SDS011;61036;53.224;6.554;2023-05-02T10:30:49;4.27;;;1.40;;
72895;SDS011;61036;53.224;6.554;2023-05-02T10:33:15;6.07;;;1.70;;
72895;SDS011;61036;53.224;6.554;2023-05-02T10:35:43;5.40;;;1.50;;
72895;SDS011;61036;53.224;6.554;2023-05-02T10:38:12;7.27;;;1.93;;
72895;SDS011;61036;53.224;6.554;2023-05-02T10:40:40;5.60;;;1.23;;
72895;SDS011;61036;53.224;6.554;2023-05-02T10:43:12;6.37;;;1.80;;
72895;SDS011;61036;53.224;6.554;2023-05-02T10:45:40;4.10;;;1.60;;
72895;SDS011;61036;53.224;6.554;2023-05-02T10:48:13;6.07;;;1.53;;
72895;SDS011;61036;53.224;6.554;2023-05-02T10:50:50;4.13;;;1.40;;
72895;SDS011;61036;53.224;6.554;2023-05-02T10:53:20;6.53;;;2.07;;
72895;SDS011;61036;53.224;6.554;2023-05-02T10:56:20;8.40;;;2.00;;
72895;SDS011;61036;53.224;6.554;2023-05-02T10:58:44;6.47;;;1.87;;
72895;SDS011;61036;53.224;6.554;2023-05-02T11:04:04;6.77;;;1.60;;
72895;SDS011;61036;53.224;6.554;2023-05-02T11:06:32;4.93;;;1.53;;
72895;SDS011;61036;53.224;6.554;2023-05-02T11:24:51;5.20;;;1.40;;
72895;SDS011;61036;53.224;6.554;2023-05-02T11:30:13;6.70;;;1.33;;
72895;SDS011;61036;53.224;6.554;2023-05-02T11:35:29;4.57;;;1.30;;
72895;SDS011;61036;53.224;6.554;2023-05-02T11:38:01;4.77;;;1.40;;
72895;SDS011;61036;53.224;6.554;2023-05-02T11:40:27;3.00;;;1.10;;
72895;SDS011;61036;53.224;6.554;2023-05-02T11:42:54;5.37;;;1.53;;
72895;SDS011;61036;53.224;6.554;2023-05-02T11:45:20;5.40;;;1.57;;
72895;SDS011;61036;53.224;6.554;2023-05-02T11:47:46;4.03;;;1.03;;
72895;SDS011;61036;53.224;6.554;2023-05-02T11:50:13;2.47;;;0.70;;
72895;SDS011;61036;53.224;6.554;2023-05-02T11:52:40;1.40;;;0.70;;
72895;SDS011;61036;53.224;6.554;2023-05-02T11:55:07;3.92;;;0.90;;
72895;SDS011;61036;53.224;6.554;2023-05-02T11:57:36;4.80;;;1.00;;
72895;SDS011;61036;53.224;6.554;2023-05-02T12:00:02;6.03;;;1.07;;
72895;SDS011;61036;53.224;6.554;2023-05-02T12:02:43;2.80;;;0.70;;
72895;SDS011;61036;53.224;6.554;2023-05-02T12:05:12;1.77;;;0.70;;
72895;SDS011;61036;53.224;6.554;2023-05-02T12:07:39;4.57;;;0.90;;
72895;SDS011;61036;53.224;6.554;2023-05-02T12:10:06;2.50;;;0.80;;
72895;SDS011;61036;53.224;6.554;2023-05-02T12:12:33;1.97;;;1.00;;
72895;SDS011;61036;53.224;6.554;2023-05-02T12:15:02;2.37;;;0.90;;
72895;SDS011;61036;53.224;6.554;2023-05-02T12:17:29;2.73;;;0.90;;
72895;SDS011;61036;53.224;6.554;2023-05-02T12:19:56;3.63;;;0.90;;
72895;SDS011;61036;53.224;6.554;2023-05-02T12:22:22;0.93;;;0.60;;
72895;SDS011;61036;53.224;6.554;2023-05-02T12:24:49;3.03;;;1.00;;
72895;SDS011;61036;53.224;6.554;2023-05-02T12:27:15;2.53;;;0.90;;
72895;SDS011;61036;53.224;6.554;2023-05-02T12:29:41;3.63;;;0.90;;
72895;SDS011;61036;53.224;6.554;2023-05-02T12:32:09;5.30;;;1.15;;
72895;SDS011;61036;53.224;6.554;2023-05-02T12:34:36;3.20;;;1.10;;
72895;SDS011;61036;53.224;6.554;2023-05-02T12:37:02;2.63;;;1.00;;
72895;SDS011;61036;53.224;6.554;2023-05-02T12:39:38;2.57;;;0.90;;
72895;SDS011;61036;53.224;6.554;2023-05-02T12:42:11;6.43;;;1.30;;
72895;SDS011;61036;53.224;6.554;2023-05-02T12:44:39;2.73;;;0.80;;
72895;SDS011;61036;53.224;6.554;2023-05-02T12:47:10;3.10;;;0.80;;
72895;SDS011;61036;53.224;6.554;2023-05-02T12:49:50;6.73;;;1.67;;
72895;SDS011;61036;53.224;6.554;2023-05-02T12:52:17;5.27;;;1.17;;
72895;SDS011;61036;53.224;6.554;2023-05-02T12:55:16;4.57;;;1.20;;
72895;SDS011;61036;53.224;6.554;2023-05-02T12:57:45;4.03;;;1.17;;
72895;SDS011;61036;53.224;6.554;2023-05-02T13:00:12;5.43;;;1.20;;
72895;SDS011;61036;53.224;6.554;2023-05-02T13:02:40;4.23;;;1.33;;
72895;SDS011;61036;53.224;6.554;2023-05-02T13:05:18;5.03;;;1.37;;
72895;SDS011;61036;53.224;6.554;2023-05-02T13:07:44;5.03;;;1.30;;
72895;SDS011;61036;53.224;6.554;2023-05-02T13:10:11;3.53;;;1.20;;
72895;SDS011;61036;53.224;6.554;2023-05-02T13:12:37;5.70;;;1.13;;
72895;SDS011;61036;53.224;6.554;2023-05-02T13:15:03;6.60;;;1.73;;
72895;SDS011;61036;53.224;6.554;2023-05-02T13:17:30;5.93;;;1.30;;
72895;SDS011;61036;53.224;6.554;2023-05-02T13:19:56;5.23;;;1.43;;
72895;SDS011;61036;53.224;6.554;2023-05-02T13:22:22;6.73;;;1.63;;
72895;SDS011;61036;53.224;6.554;2023-05-02T13:24:47;5.53;;;1.10;;
72895;SDS011;61036;53.224;6.554;2023-05-02T13:27:13;7.33;;;1.47;;
72895;SDS011;61036;53.224;6.554;2023-05-02T13:29:39;5.20;;;1.20;;
72895;SDS011;61036;53.224;6.554;2023-05-02T13:32:04;7.10;;;1.40;;
72895;SDS011;61036;53.224;6.554;2023-05-02T13:34:30;5.60;;;1.10;;
72895;SDS011;61036;53.224;6.554;2023-05-02T13:36:55;2.53;;;1.00;;
72895;SDS011;61036;53.224;6.554;2023-05-02T13:39:21;3.57;;;0.87;;
72895;SDS011;61036;53.224;6.554;2023-05-02T13:41:46;3.13;;;0.90;;
72895;SDS011;61036;53.224;6.554;2023-05-02T13:44:12;3.07;;;1.00;;
72895;SDS011;61036;53.224;6.554;2023-05-02T13:46:37;5.20;;;2.00;;
72895;SDS011;61036;53.224;6.554;2023-05-02T13:49:03;21.80;;;8.20;;
72895;SDS011;61036;53.224;6.554;2023-05-02T13:51:29;5.97;;;1.23;;
72895;SDS011;61036;53.224;6.554;2023-05-02T13:53:56;372.70;;;333.27;;
72895;SDS011;61036;53.224;6.554;2023-05-02T13:56:22;71.47;;;35.10;;
72895;SDS011;61036;53.224;6.554;2023-05-02T13:58:48;9.50;;;5.13;;
72895;SDS011;61036;53.224;6.554;2023-05-02T14:01:13;4.83;;;1.23;;
72895;SDS011;61036;53.224;6.554;2023-05-02T14:03:39;71.33;;;40.77;;
72895;SDS011;61036;53.224;6.554;2023-05-02T14:06:04;162.83;;;146.37;;
72895;SDS011;61036;53.224;6.554;2023-05-02T14:08:30;5.53;;;1.20;;
72895;SDS011;61036;53.224;6.554;2023-05-02T14:10:56;2.53;;;0.80;;
72895;SDS011;61036;53.224;6.554;2023-05-02T14:13:21;4.73;;;1.40;;
72895;SDS011;61036;53.224;6.554;2023-05-02T14:15:48;319.43;;;153.13;;
72895;SDS011;61036;53.224;6.554;2023-05-02T14:18:14;2.90;;;0.90;;
72895;SDS011;61036;53.224;6.554;2023-05-02T14:20:41;5.80;;;2.17;;
72895;SDS011;61036;53.224;6.554;2023-05-02T14:23:07;4.77;;;1.00;;
72895;SDS011;61036;53.224;6.554;2023-05-02T14:25:32;94.17;;;54.30;;
72895;SDS011;61036;53.224;6.554;2023-05-02T14:27:58;195.47;;;178.07;;
72895;SDS011;61036;53.224;6.554;2023-05-02T14:30:24;6.50;;;1.10;;
72895;SDS011;61036;53.224;6.554;2023-05-02T14:32:50;5.93;;;1.40;;
72895;SDS011;61036;53.224;6.554;2023-05-02T14:35:16;315.70;;;298.13;;
72895;SDS011;61036;53.224;6.554;2023-05-02T14:37:41;237.90;;;216.67;;
72895;SDS011;61036;53.224;6.554;2023-05-02T14:40:09;25.37;;;20.00;;
72895;SDS011;61036;53.224;6.554;2023-05-02T14:42:34;58.90;;;54.50;;
72895;SDS011;61036;53.224;6.554;2023-05-02T14:45:00;5.87;;;1.37;;
72895;SDS011;61036;53.224;6.554;2023-05-02T14:47:29;123.23;;;111.67;;
72895;SDS011;61036;53.224;6.554;2023-05-02T14:49:55;5.83;;;1.50;;
72895;SDS011;61036;53.224;6.554;2023-05-02T14:52:21;6.60;;;1.10;;
72895;SDS011;61036;53.224;6.554;2023-05-02T14:54:46;4.53;;;1.27;;
72895;SDS011;61036;53.224;6.554;2023-05-02T14:57:12;3.37;;;1.10;;
72895;SDS011;61036;53.224;6.554;2023-05-02T14:59:38;6.10;;;1.10;;
72895;SDS011;61036;53.224;6.554;2023-05-02T15:02:04;3.17;;;1.00;;
72895;SDS011;61036;53.224;6.554;2023-05-02T15:04:33;4.00;;;1.13;;
72895;SDS011;61036;53.224;6.554;2023-05-02T15:06:58;200.80;;;183.33;;
72895;SDS011;61036;53.224;6.554;2023-05-02T15:09:25;4.37;;;1.27;;
72895;SDS011;61036;53.224;6.554;2023-05-02T15:11:51;4.73;;;1.20;;
72895;SDS011;61036;53.224;6.554;2023-05-02T15:14:17;5.17;;;1.30;;
72895;SDS011;61036;53.224;6.554;2023-05-02T15:16:42;3.50;;;1.30;;
72895;SDS011;61036;53.224;6.554;2023-05-02T15:19:08;5.03;;;1.47;;
72895;SDS011;61036;53.224;6.554;2023-05-02T15:21:33;3.17;;;1.40;;
72895;SDS011;61036;53.224;6.554;2023-05-02T15:23:59;6.40;;;1.43;;
72895;SDS011;61036;53.224;6.554;2023-05-02T15:26:25;4.10;;;1.07;;
72895;SDS011;61036;53.224;6.554;2023-05-02T15:28:51;6.17;;;1.40;;
72895;SDS011;61036;53.224;6.554;2023-05-02T15:31:17;4.33;;;1.50;;